sensor_id;sensor_type;location;lat;lon;timestamp;pressure;altitude;pressure_sealevel;temperature;humidity
39177;BME280;24904;52.208;21.192;2023-02-26T00:02:17;99058.75;;;2.00;80.00
39177;BME280;24904;52.208;21.192;2023-02-26T00:07:20;99066.45;;;1.92;79.63
39177;BME280;24904;52.208;21.192;2023-02-26T00:12:27;99075.40;;;1.87;79.58
39177;BME280;24904;52.208;21.192;2023-02-26T00:17:38;99079.63;;;1.83;79.02
39177;BME280;24904;52.208;21.192;2023-02-26T00:22:44;99093.83;;;1.73;78.80
39177;BME280;24904;52.208;21.192;2023-02-26T00:27:48;99100.02;;;1.73;78.52
39177;BME280;24904;52.208;21.192;2023-02-26T00:32:52;99102.50;;;1.73;78.23
39177;BME280;24904;52.208;21.192;2023-02-26T00:37:59;99106.46;;;1.74;78.29
39177;BME280;24904;52.208;21.192;2023-02-26T00:43:04;99112.86;;;1.77;78.57
39177;BME280;24904;52.208;21.192;2023-02-26T00:48:20;99123.14;;;1.85;78.13
39177;BME280;24904;52.208;21.192;2023-02-26T00:53:30;99129.89;;;1.84;78.06
39177;BME280;24904;52.208;21.192;2023-02-26T00:58:34;99134.30;;;1.78;78.19
39177;BME280;24904;52.208;21.192;2023-02-26T01:03:38;99140.99;;;1.76;78.24
39177;BME280;24904;52.208;21.192;2023-02-26T01:08:46;99156.55;;;1.77;78.53
39177;BME280;24904;52.208;21.192;2023-02-26T01:13:55;99158.77;;;1.76;78.60
39177;BME280;24904;52.208;21.192;2023-02-26T01:19:02;99161.39;;;1.72;78.66
39177;BME280;24904;52.208;21.192;2023-02-26T01:24:10;99167.69;;;1.77;78.57
39177;BME280;24904;52.208;21.192;2023-02-26T01:29:16;99177.27;;;1.74;78.07
39177;BME280;24904;52.208;21.192;2023-02-26T01:34:25;99186.86;;;1.60;77.31
39177;BME280;24904;52.208;21.192;2023-02-26T01:39:35;99197.09;;;1.47;77.05
39177;BME280;24904;52.208;21.192;2023-02-26T01:44:45;99207.35;;;1.39;77.31
39177;BME280;24904;52.208;21.192;2023-02-26T01:49:50;99223.42;;;1.39;76.72
39177;BME280;24904;52.208;21.192;2023-02-26T01:54:54;99234.45;;;1.38;76.48
39177;BME280;24904;52.208;21.192;2023-02-26T01:59:57;99246.36;;;1.35;76.24
39177;BME280;24904;52.208;21.192;2023-02-26T02:05:02;99254.58;;;1.33;76.22
39177;BME280;24904;52.208;21.192;2023-02-26T02:10:08;99265.48;;;1.34;76.16
39177;BME280;24904;52.208;21.192;2023-02-26T02:15:14;99281.62;;;1.31;75.94
39177;BME280;24904;52.208;21.192;2023-02-26T02:20:47;99292.62;;;1.30;75.83
39177;BME280;24904;52.208;21.192;2023-02-26T02:26:18;99303.17;;;1.31;75.84
39177;BME280;24904;52.208;21.192;2023-02-26T02:31:28;99310.88;;;1.32;75.61
39177;BME280;24904;52.208;21.192;2023-02-26T02:36:37;99320.05;;;1.29;75.86
39177;BME280;24904;52.208;21.192;2023-02-26T02:41:46;99324.98;;;1.31;75.79
39177;BME280;24904;52.208;21.192;2023-02-26T02:46:54;99331.23;;;1.31;75.02
39177;BME280;24904;52.208;21.192;2023-02-26T02:52:01;99342.72;;;1.33;75.04
39177;BME280;24904;52.208;21.192;2023-02-26T02:57:12;99351.70;;;1.31;74.65
39177;BME280;24904;52.208;21.192;2023-02-26T03:02:22;99355.33;;;1.24;74.62
39177;BME280;24904;52.208;21.192;2023-02-26T03:07:29;99366.86;;;1.25;74.51
39177;BME280;24904;52.208;21.192;2023-02-26T03:12:35;99377.67;;;1.25;74.90
39177;BME280;24904;52.208;21.192;2023-02-26T03:17:45;99392.84;;;1.30;74.42
39177;BME280;24904;52.208;21.192;2023-02-26T03:23:01;99406.25;;;1.28;74.38
39177;BME280;24904;52.208;21.192;2023-02-26T03:28:10;99413.98;;;1.34;74.61
39177;BME280;24904;52.208;21.192;2023-02-26T03:33:22;99426.81;;;1.36;74.35
39177;BME280;24904;52.208;21.192;2023-02-26T03:38:32;99432.59;;;1.35;73.95
39177;BME280;24904;52.208;21.192;2023-02-26T03:43:42;99437.38;;;1.38;74.32
39177;BME280;24904;52.208;21.192;2023-02-26T03:48:49;99442.84;;;1.40;74.42
39177;BME280;24904;52.208;21.192;2023-02-26T03:53:59;99452.95;;;1.44;73.96
39177;BME280;24904;52.208;21.192;2023-02-26T03:59:05;99461.25;;;1.38;73.74
39177;BME280;24904;52.208;21.192;2023-02-26T04:04:25;99471.59;;;1.38;73.63
39177;BME280;24904;52.208;21.192;2023-02-26T04:09:29;99480.74;;;1.36;73.48
39177;BME280;24904;52.208;21.192;2023-02-26T04:14:33;99493.55;;;1.31;73.23
39177;BME280;24904;52.208;21.192;2023-02-26T04:19:36;99503.04;;;1.26;73.24
39177;BME280;24904;52.208;21.192;2023-02-26T04:33:05;99519.11;;;1.28;73.35
39177;BME280;24904;52.208;21.192;2023-02-26T04:38:10;99523.31;;;1.29;73.17
39177;BME280;24904;52.208;21.192;2023-02-26T04:43:16;99534.77;;;1.32;73.41
39177;BME280;24904;52.208;21.192;2023-02-26T04:48:29;99536.41;;;1.37;73.12
39177;BME280;24904;52.208;21.192;2023-02-26T04:53:34;99546.67;;;1.39;73.21
39177;BME280;24904;52.208;21.192;2023-02-26T04:58:39;99552.67;;;1.40;72.59
39177;BME280;24904;52.208;21.192;2023-02-26T05:03:47;99562.19;;;1.40;73.12
39177;BME280;24904;52.208;21.192;2023-02-26T05:08:52;99566.45;;;1.37;72.57
39177;BME280;24904;52.208;21.192;2023-02-26T05:13:57;99575.30;;;1.33;72.34
39177;BME280;24904;52.208;21.192;2023-02-26T05:19:02;99583.64;;;1.29;72.36
39177;BME280;24904;52.208;21.192;2023-02-26T05:24:08;99586.73;;;1.24;72.05
39177;BME280;24904;52.208;21.192;2023-02-26T05:29:13;99592.45;;;1.25;72.62
39177;BME280;24904;52.208;21.192;2023-02-26T05:34:19;99604.08;;;1.23;72.52
39177;BME280;24904;52.208;21.192;2023-02-26T05:39:24;99617.67;;;1.21;72.62
39177;BME280;24904;52.208;21.192;2023-02-26T05:44:29;99628.67;;;1.24;72.70
39177;BME280;24904;52.208;21.192;2023-02-26T05:49:34;99640.27;;;1.28;72.82
39177;BME280;24904;52.208;21.192;2023-02-26T05:54:39;99653.81;;;1.31;72.42
39177;BME280;24904;52.208;21.192;2023-02-26T05:59:44;99668.17;;;1.29;72.48
39177;BME280;24904;52.208;21.192;2023-02-26T06:04:49;99678.66;;;1.28;72.90
39177;BME280;24904;52.208;21.192;2023-02-26T06:09:55;99688.55;;;1.30;72.62
39177;BME280;24904;52.208;21.192;2023-02-26T06:15:00;99699.23;;;1.35;72.59
39177;BME280;24904;52.208;21.192;2023-02-26T06:20:05;99706.89;;;1.33;72.57
39177;BME280;24904;52.208;21.192;2023-02-26T06:25:11;99714.09;;;1.27;72.47
39177;BME280;24904;52.208;21.192;2023-02-26T06:30:16;99725.19;;;1.22;72.48
39177;BME280;24904;52.208;21.192;2023-02-26T06:35:21;99740.13;;;1.16;71.75
39177;BME280;24904;52.208;21.192;2023-02-26T06:40:27;99746.67;;;1.06;70.93
39177;BME280;24904;52.208;21.192;2023-02-26T06:45:33;99759.28;;;0.99;70.75
39177;BME280;24904;52.208;21.192;2023-02-26T06:50:38;99767.86;;;0.95;70.26
39177;BME280;24904;52.208;21.192;2023-02-26T06:55:46;99781.17;;;0.90;70.22
39177;BME280;24904;52.208;21.192;2023-02-26T07:00:51;99795.74;;;0.94;70.32
39177;BME280;24904;52.208;21.192;2023-02-26T07:05:56;99811.52;;;1.00;70.51
39177;BME280;24904;52.208;21.192;2023-02-26T07:11:01;99823.91;;;0.99;70.03
39177;BME280;24904;52.208;21.192;2023-02-26T07:16:07;99827.75;;;0.98;69.66
39177;BME280;24904;52.208;21.192;2023-02-26T07:21:12;99832.97;;;0.99;69.50
39177;BME280;24904;52.208;21.192;2023-02-26T07:26:17;99841.45;;;1.02;68.90
39177;BME280;24904;52.208;21.192;2023-02-26T07:31:22;99843.09;;;1.04;69.10
39177;BME280;24904;52.208;21.192;2023-02-26T07:36:28;99856.28;;;1.12;68.71
39177;BME280;24904;52.208;21.192;2023-02-26T07:41:33;99867.23;;;1.17;68.38
39177;BME280;24904;52.208;21.192;2023-02-26T07:50:30;99886.71;;;1.28;67.16
39177;BME280;24904;52.208;21.192;2023-02-26T07:55:36;99892.13;;;1.29;66.69
39177;BME280;24904;52.208;21.192;2023-02-26T08:00:41;99899.34;;;1.36;66.79
39177;BME280;24904;52.208;21.192;2023-02-26T08:05:46;99901.81;;;1.41;66.45
39177;BME280;24904;52.208;21.192;2023-02-26T08:10:51;99911.67;;;1.40;65.76
39177;BME280;24904;52.208;21.192;2023-02-26T08:15:56;99921.91;;;1.43;65.35
39177;BME280;24904;52.208;21.192;2023-02-26T08:21:01;99929.17;;;1.40;64.51
39177;BME280;24904;52.208;21.192;2023-02-26T08:26:19;99941.90;;;1.43;65.16
39177;BME280;24904;52.208;21.192;2023-02-26T08:31:39;99941.70;;;1.49;64.87
39177;BME280;24904;52.208;21.192;2023-02-26T08:36:57;99951.99;;;1.57;64.74
39177;BME280;24904;52.208;21.192;2023-02-26T08:42:02;99960.25;;;1.61;65.14
39177;BME280;24904;52.208;21.192;2023-02-26T08:55:32;99989.45;;;1.70;64.21
39177;BME280;24904;52.208;21.192;2023-02-26T09:00:38;100007.03;;;1.72;64.84
39177;BME280;24904;52.208;21.192;2023-02-26T09:05:43;100023.89;;;1.65;64.32
39177;BME280;24904;52.208;21.192;2023-02-26T09:10:48;100037.05;;;1.63;64.06
39177;BME280;24904;52.208;21.192;2023-02-26T09:15:53;100047.06;;;1.61;64.08
39177;BME280;24904;52.208;21.192;2023-02-26T09:20:58;100055.27;;;1.59;64.24
39177;BME280;24904;52.208;21.192;2023-02-26T09:26:03;100059.92;;;1.59;64.35
39177;BME280;24904;52.208;21.192;2023-02-26T09:31:11;100064.64;;;1.59;63.55
39177;BME280;24904;52.208;21.192;2023-02-26T09:36:17;100073.30;;;1.56;63.85
39177;BME280;24904;52.208;21.192;2023-02-26T09:41:25;100085.94;;;1.58;63.85
39177;BME280;24904;52.208;21.192;2023-02-26T09:46:39;100091.61;;;1.65;64.70
39177;BME280;24904;52.208;21.192;2023-02-26T09:51:48;100104.33;;;1.68;64.06
39177;BME280;24904;52.208;21.192;2023-02-26T09:56:58;100106.44;;;1.65;63.58
39177;BME280;24904;52.208;21.192;2023-02-26T10:02:06;100108.44;;;1.57;63.60
39177;BME280;24904;52.208;21.192;2023-02-26T10:07:25;100112.80;;;1.54;63.38
39177;BME280;24904;52.208;21.192;2023-02-26T10:12:38;100128.52;;;1.49;63.39
39177;BME280;24904;52.208;21.192;2023-02-26T10:17:59;100136.50;;;1.51;63.69
39177;BME280;24904;52.208;21.192;2023-02-26T10:23:17;100144.98;;;1.56;64.45
39177;BME280;24904;52.208;21.192;2023-02-26T10:28:38;100150.31;;;1.58;64.48
39177;BME280;24904;52.208;21.192;2023-02-26T10:33:52;100153.05;;;1.57;64.23
39177;BME280;24904;52.208;21.192;2023-02-26T10:39:13;100158.52;;;1.55;63.93
39177;BME280;24904;52.208;21.192;2023-02-26T10:44:19;100169.95;;;1.58;64.39
39177;BME280;24904;52.208;21.192;2023-02-26T10:49:48;100178.14;;;1.58;64.12
39177;BME280;24904;52.208;21.192;2023-02-26T11:00:20;100192.59;;;1.43;63.88
39177;BME280;24904;52.208;21.192;2023-02-26T11:05:29;100203.10;;;1.43;64.01
39177;BME280;24904;52.208;21.192;2023-02-26T11:10:41;100207.48;;;1.48;64.05
39177;BME280;24904;52.208;21.192;2023-02-26T11:15:50;100217.16;;;1.56;64.72
39177;BME280;24904;52.208;21.192;2023-02-26T11:20:57;100226.71;;;1.56;64.45
39177;BME280;24904;52.208;21.192;2023-02-26T11:26:07;100228.36;;;1.56;64.06
39177;BME280;24904;52.208;21.192;2023-02-26T11:31:20;100226.94;;;1.56;63.67
39177;BME280;24904;52.208;21.192;2023-02-26T11:36:28;100220.52;;;1.63;62.78
39177;BME280;24904;52.208;21.192;2023-02-26T11:41:38;100235.27;;;1.71;63.07
39177;BME280;24904;52.208;21.192;2023-02-26T11:46:48;100241.88;;;1.79;62.71
39177;BME280;24904;52.208;21.192;2023-02-26T11:52:15;100251.50;;;1.78;61.86
39177;BME280;24904;52.208;21.192;2023-02-26T11:57:24;100263.64;;;1.83;61.72
39177;BME280;24904;52.208;21.192;2023-02-26T12:02:38;100275.92;;;1.80;60.46
39177;BME280;24904;52.208;21.192;2023-02-26T12:07:43;100280.27;;;1.83;60.73
39177;BME280;24904;52.208;21.192;2023-02-26T12:13:11;100292.68;;;1.88;60.80
39177;BME280;24904;52.208;21.192;2023-02-26T12:18:27;100305.52;;;1.89;61.16
39177;BME280;24904;52.208;21.192;2023-02-26T12:24:10;100309.84;;;1.91;60.83
39177;BME280;24904;52.208;21.192;2023-02-26T12:29:39;100312.71;;;1.88;60.60
39177;BME280;24904;52.208;21.192;2023-02-26T12:46:10;100329.20;;;1.83;59.99
39177;BME280;24904;52.208;21.192;2023-02-26T12:51:29;100341.12;;;1.83;60.89
39177;BME280;24904;52.208;21.192;2023-02-26T12:56:57;100343.23;;;1.90;60.74
39177;BME280;24904;52.208;21.192;2023-02-26T13:02:31;100350.33;;;1.95;61.25
39177;BME280;24904;52.208;21.192;2023-02-26T13:07:51;100352.95;;;2.05;61.96
39177;BME280;24904;52.208;21.192;2023-02-26T13:13:13;100354.02;;;2.08;61.21
39177;BME280;24904;52.208;21.192;2023-02-26T13:18:29;100354.58;;;2.16;61.45
39177;BME280;24904;52.208;21.192;2023-02-26T13:23:50;100357.73;;;2.15;61.18
39177;BME280;24904;52.208;21.192;2023-02-26T13:28:58;100370.25;;;2.13;60.73
39177;BME280;24904;52.208;21.192;2023-02-26T13:34:10;100376.61;;;2.06;60.11
39177;BME280;24904;52.208;21.192;2023-02-26T13:46:10;100383.84;;;2.20;60.09
39177;BME280;24904;52.208;21.192;2023-02-26T13:51:27;100387.31;;;2.23;59.95
39177;BME280;24904;52.208;21.192;2023-02-26T14:02:42;100398.52;;;2.27;58.95
39177;BME280;24904;52.208;21.192;2023-02-26T14:07:48;100406.13;;;2.33;59.54
39177;BME280;24904;52.208;21.192;2023-02-26T14:13:09;100406.85;;;2.34;58.78
39177;BME280;24904;52.208;21.192;2023-02-26T14:23:36;100416.35;;;2.35;58.83
39177;BME280;24904;52.208;21.192;2023-02-26T14:28:53;100418.37;;;2.30;58.76
39177;BME280;24904;52.208;21.192;2023-02-26T14:34:13;100423.14;;;2.31;59.00
39177;BME280;24904;52.208;21.192;2023-02-26T14:39:22;100427.13;;;2.33;58.42
39177;BME280;24904;52.208;21.192;2023-02-26T14:44:28;100436.44;;;2.34;58.77
39177;BME280;24904;52.208;21.192;2023-02-26T14:49:34;100441.76;;;2.35;58.85
39177;BME280;24904;52.208;21.192;2023-02-26T14:54:52;100446.39;;;2.42;58.90
39177;BME280;24904;52.208;21.192;2023-02-26T15:08:43;100468.20;;;2.57;58.56
39177;BME280;24904;52.208;21.192;2023-02-26T15:22:27;100481.50;;;2.67;58.20
39177;BME280;24904;52.208;21.192;2023-02-26T15:27:33;100491.71;;;2.68;58.10
39177;BME280;24904;52.208;21.192;2023-02-26T15:32:37;100497.67;;;2.65;58.37
39177;BME280;24904;52.208;21.192;2023-02-26T15:37:42;100506.39;;;2.64;58.14
39177;BME280;24904;52.208;21.192;2023-02-26T15:42:55;100504.83;;;2.62;58.33
39177;BME280;24904;52.208;21.192;2023-02-26T15:48:02;100513.35;;;2.59;58.09
39177;BME280;24904;52.208;21.192;2023-02-26T15:53:10;100520.52;;;2.49;58.13
39177;BME280;24904;52.208;21.192;2023-02-26T15:58:19;100531.47;;;2.39;58.69
39177;BME280;24904;52.208;21.192;2023-02-26T16:03:29;100540.96;;;2.31;59.15
39177;BME280;24904;52.208;21.192;2023-02-26T16:08:32;100547.14;;;2.21;59.82
39177;BME280;24904;52.208;21.192;2023-02-26T16:13:36;100552.35;;;2.12;59.98
39177;BME280;24904;52.208;21.192;2023-02-26T16:18:41;100561.83;;;2.08;60.09
39177;BME280;24904;52.208;21.192;2023-02-26T16:23:48;100567.69;;;2.04;60.09
39177;BME280;24904;52.208;21.192;2023-02-26T16:28:55;100567.05;;;1.97;60.44
39177;BME280;24904;52.208;21.192;2023-02-26T16:34:01;100576.56;;;1.83;60.79
39177;BME280;24904;52.208;21.192;2023-02-26T16:39:16;100582.23;;;1.69;61.02
39177;BME280;24904;52.208;21.192;2023-02-26T16:44:57;100595.95;;;1.64;62.06
39177;BME280;24904;52.208;21.192;2023-02-26T16:50:04;100607.52;;;1.55;62.28
39177;BME280;24904;52.208;21.192;2023-02-26T16:55:16;100608.27;;;1.49;62.67
39177;BME280;24904;52.208;21.192;2023-02-26T17:00:22;100618.19;;;1.43;63.17
39177;BME280;24904;52.208;21.192;2023-02-26T17:05:34;100624.80;;;1.40;63.56
39177;BME280;24904;52.208;21.192;2023-02-26T17:10:43;100637.04;;;1.43;63.61
39177;BME280;24904;52.208;21.192;2023-02-26T17:15:47;100636.65;;;1.43;63.90
39177;BME280;24904;52.208;21.192;2023-02-26T17:20:52;100640.57;;;1.38;63.83
39177;BME280;24904;52.208;21.192;2023-02-26T17:25:56;100647.32;;;1.37;63.83
39177;BME280;24904;52.208;21.192;2023-02-26T17:31:03;100656.08;;;1.31;63.96
39177;BME280;24904;52.208;21.192;2023-02-26T17:36:11;100666.30;;;1.27;64.69
39177;BME280;24904;52.208;21.192;2023-02-26T17:41:17;100673.84;;;1.28;65.13
39177;BME280;24904;52.208;21.192;2023-02-26T17:46:20;100682.48;;;1.26;65.32
39177;BME280;24904;52.208;21.192;2023-02-26T17:51:23;100690.66;;;1.25;65.31
39177;BME280;24904;52.208;21.192;2023-02-26T17:56:30;100704.58;;;1.28;65.78
39177;BME280;24904;52.208;21.192;2023-02-26T18:01:34;100706.95;;;1.30;65.71
39177;BME280;24904;52.208;21.192;2023-02-26T18:06:37;100714.39;;;1.29;65.69
39177;BME280;24904;52.208;21.192;2023-02-26T18:11:41;100714.52;;;1.33;66.29
39177;BME280;24904;52.208;21.192;2023-02-26T18:16:44;100716.45;;;1.38;66.45
39177;BME280;24904;52.208;21.192;2023-02-26T18:21:47;100721.09;;;1.38;66.32
39177;BME280;24904;52.208;21.192;2023-02-26T18:26:50;100726.15;;;1.39;66.23
39177;BME280;24904;52.208;21.192;2023-02-26T18:31:54;100726.90;;;1.41;66.21
39177;BME280;24904;52.208;21.192;2023-02-26T18:36:57;100728.53;;;1.42;66.30
39177;BME280;24904;52.208;21.192;2023-02-26T18:42:00;100735.28;;;1.45;66.33
39177;BME280;24904;52.208;21.192;2023-02-26T18:47:03;100742.82;;;1.45;66.48
39177;BME280;24904;52.208;21.192;2023-02-26T18:52:06;100759.40;;;1.45;66.70
39177;BME280;24904;52.208;21.192;2023-02-26T18:57:09;100763.29;;;1.46;66.83
39177;BME280;24904;52.208;21.192;2023-02-26T19:02:13;100771.70;;;1.47;66.55
39177;BME280;24904;52.208;21.192;2023-02-26T19:07:16;100777.16;;;1.48;66.50
39177;BME280;24904;52.208;21.192;2023-02-26T19:12:19;100782.29;;;1.51;66.34
39177;BME280;24904;52.208;21.192;2023-02-26T19:17:24;100789.83;;;1.53;66.48
39177;BME280;24904;52.208;21.192;2023-02-26T19:22:27;100795.21;;;1.54;66.18
39177;BME280;24904;52.208;21.192;2023-02-26T19:27:30;100795.49;;;1.63;65.87
39177;BME280;24904;52.208;21.192;2023-02-26T19:32:33;100793.77;;;1.65;65.45
39177;BME280;24904;52.208;21.192;2023-02-26T19:37:36;100798.03;;;1.65;65.51
39177;BME280;24904;52.208;21.192;2023-02-26T19:42:39;100802.85;;;1.63;65.95
39177;BME280;24904;52.208;21.192;2023-02-26T19:47:43;100808.01;;;1.63;65.74
39177;BME280;24904;52.208;21.192;2023-02-26T19:52:46;100818.02;;;1.65;65.93
39177;BME280;24904;52.208;21.192;2023-02-26T19:57:49;100823.04;;;1.63;65.74
39177;BME280;24904;52.208;21.192;2023-02-26T20:02:52;100828.75;;;1.70;65.60
39177;BME280;24904;52.208;21.192;2023-02-26T20:07:56;100835.12;;;1.73;65.33
39177;BME280;24904;52.208;21.192;2023-02-26T20:12:59;100841.51;;;1.71;65.73
39177;BME280;24904;52.208;21.192;2023-02-26T20:18:02;100844.83;;;1.72;65.71
39177;BME280;24904;52.208;21.192;2023-02-26T20:23:07;100854.30;;;1.72;65.16
39177;BME280;24904;52.208;21.192;2023-02-26T20:28:10;100848.68;;;1.72;64.79
39177;BME280;24904;52.208;21.192;2023-02-26T20:33:14;100853.49;;;1.81;64.69
39177;BME280;24904;52.208;21.192;2023-02-26T20:38:19;100865.30;;;1.85;64.26
39177;BME280;24904;52.208;21.192;2023-02-26T20:43:22;100873.24;;;1.88;65.21
39177;BME280;24904;52.208;21.192;2023-02-26T20:48:26;100876.61;;;1.87;65.19
39177;BME280;24904;52.208;21.192;2023-02-26T20:53:29;100877.84;;;1.85;65.46
39177;BME280;24904;52.208;21.192;2023-02-26T20:58:32;100878.02;;;1.92;65.24
39177;BME280;24904;52.208;21.192;2023-02-26T21:03:36;100881.99;;;1.91;65.40
39177;BME280;24904;52.208;21.192;2023-02-26T21:08:39;100884.24;;;1.94;65.37
39177;BME280;24904;52.208;21.192;2023-02-26T21:13:44;100888.91;;;1.96;65.24
39177;BME280;24904;52.208;21.192;2023-02-26T21:18:47;100891.73;;;1.96;65.54
39177;BME280;24904;52.208;21.192;2023-02-26T21:23:51;100893.91;;;2.00;65.02
39177;BME280;24904;52.208;21.192;2023-02-26T21:28:54;100901.33;;;2.08;64.73
39177;BME280;24904;52.208;21.192;2023-02-26T21:33:57;100912.39;;;2.09;64.99
39177;BME280;24904;52.208;21.192;2023-02-26T21:39:01;100916.01;;;2.07;65.27
39177;BME280;24904;52.208;21.192;2023-02-26T21:44:05;100919.11;;;2.09;65.10
39177;BME280;24904;52.208;21.192;2023-02-26T21:49:08;100925.77;;;2.12;64.71
39177;BME280;24904;52.208;21.192;2023-02-26T21:54:11;100931.53;;;2.11;64.69
39177;BME280;24904;52.208;21.192;2023-02-26T21:59:14;100932.49;;;2.09;64.84
39177;BME280;24904;52.208;21.192;2023-02-26T22:04:17;100938.84;;;2.09;64.55
39177;BME280;24904;52.208;21.192;2023-02-26T22:09:21;100941.79;;;2.07;64.22
39177;BME280;24904;52.208;21.192;2023-02-26T22:14:24;100946.14;;;2.12;63.75
39177;BME280;24904;52.208;21.192;2023-02-26T22:19:27;100953.69;;;2.14;64.43
39177;BME280;24904;52.208;21.192;2023-02-26T22:24:30;100955.09;;;2.19;63.96
39177;BME280;24904;52.208;21.192;2023-02-26T22:29:33;100960.09;;;2.23;63.91
39177;BME280;24904;52.208;21.192;2023-02-26T22:34:37;100968.08;;;2.24;63.31
39177;BME280;24904;52.208;21.192;2023-02-26T22:46:05;100979.76;;;2.18;63.02
39177;BME280;24904;52.208;21.192;2023-02-26T22:51:09;100977.30;;;2.17;63.18
39177;BME280;24904;52.208;21.192;2023-02-26T22:56:12;100979.84;;;2.20;63.53
39177;BME280;24904;52.208;21.192;2023-02-26T23:01:39;100987.02;;;2.18;64.03
39177;BME280;24904;52.208;21.192;2023-02-26T23:06:42;100992.09;;;2.14;63.74
39177;BME280;24904;52.208;21.192;2023-02-26T23:11:45;100997.67;;;2.15;63.55
39177;BME280;24904;52.208;21.192;2023-02-26T23:16:48;101000.36;;;2.20;64.07
39177;BME280;24904;52.208;21.192;2023-02-26T23:21:52;101001.59;;;2.23;64.02
39177;BME280;24904;52.208;21.192;2023-02-26T23:26:55;101013.82;;;2.21;63.85
39177;BME280;24904;52.208;21.192;2023-02-26T23:31:58;101017.44;;;2.20;63.77
39177;BME280;24904;52.208;21.192;2023-02-26T23:37:01;101018.45;;;2.20;63.82
39177;BME280;24904;52.208;21.192;2023-02-26T23:42:05;101015.20;;;2.20;64.14
39177;BME280;24904;52.208;21.192;2023-02-26T23:47:08;101023.48;;;2.15;64.19
39177;BME280;24904;52.208;21.192;2023-02-26T23:52:11;101025.46;;;2.15;64.57
39177;BME280;24904;52.208;21.192;2023-02-26T23:57:14;101028.29;;;2.13;64.03
